首页
METAR-TAF:

METAR-TAF

机场 :

Gore Bay, 安大略省, 加拿大

纬度: 45-53N, 经度: 082-34W, 海拔: 193米

当前天气观测

该预报发布于1小时和9分钟前的09:00 UTC
风速3节,风向南转西南
温度 6°C
湿度 93%
气压 1022 hPa
能見度: 14.5公里
少量云层高于18000英尺

METAR: CYZE 010900Z AUTO 21003KT 9SM FEW180 06/05 A3018 RMK SLP226

时间: 06:09 (10:09 UTC)

预报

该预报发布于31分钟前的09:38 UTC
预报有效从01日的 10点(UTC)到 01日的 22点(UTC)
风速3节,风向多变
能見度: 10公里
散云层高于20000英尺
成为
从 01日的 10点(UTC)到 01日的 12点(UTC)
风速10节,风向西
成为
从 01日的 14点(UTC)到 01日的 16点(UTC)
风速15节,风向西
从 01日的 2100点(UTC)
风速10节,风向西南
能見度: 10公里
多云层高于12000英尺

TAF: CYZE 010938Z 0110/0122 VRB03KT P6SM SCT200 BECMG 0110/0112 26010KT BECMG 0114/0116 27015KT FM012100 23010KT P6SM BKN120 RMK FCST BASED ON AUTO OBS. NXT FCST BY 011400Z

超过4000个机场的气象观测和天气预报(METAR&TAF报告)。

可查询的气象台以黄色和红色小点在地图上表示。

将鼠标移到小点上方,可查看气象台名称。

然后点击查看天气观测和预报。

如需切换地图:点击带黑十字的绿色按钮放大地图;点击带横线的绿色按钮缩小地图;或者点击绿色箭头查看邻近地区的地图。


METAR-TAF: